Time;durP1;ratioP1;P1;durP2;ratioP2;P2;SDS_P1;SDS_P2;PMS_P1;PMS_P2;Temp;Humidity;BMP_temperature;BMP_pressure;BME280_temperature;BME280_humidity;BME280_pressure;Samples;Min_cycle;Max_cycle;Signal;HPM_P1;HPM_P2
2021/05/30 00:00:48;;;;;;;6.47;3.70;;;;;;;12.71;100.00;99003.86;1753835;80;21025;-76
2021/05/30 00:03:15;;;;;;;6.28;4.28;;;;;;;12.71;100.00;99002.48;1734747;79;21066;-74
2021/05/30 00:05:41;;;;;;;5.45;3.58;;;;;;;12.71;100.00;98998.34;1755710;80;20863;-74
2021/05/30 00:08:08;;;;;;;5.12;3.35;;;;;;;12.73;100.00;98998.00;1746592;80;21025;-75
2021/05/30 00:10:36;;;;;;;7.28;4.30;;;;;;;12.73;100.00;99000.76;1751594;80;21002;-75
2021/05/30 00:13:02;;;;;;;5.67;3.60;;;;;;;12.73;100.00;98999.38;1769987;80;20922;-75
2021/05/30 00:15:30;;;;;;;7.17;3.30;;;;;;;12.73;100.00;99002.14;1771425;80;21083;-76
2021/05/30 00:17:58;;;;;;;5.53;3.85;;;;;;;12.73;100.00;99005.69;1747772;80;21689;-75
2021/05/30 00:20:24;;;;;;;6.70;3.75;;;;;;;12.73;100.00;99002.14;1754076;80;20888;-75
2021/05/30 00:22:52;;;;;;;3.60;3.30;;;;;;;12.75;100.00;99006.73;1769390;80;21001;-73
2021/05/30 00:25:19;;;;;;;5.42;4.15;;;;;;;12.77;100.00;99007.19;1751923;80;20915;-73
2021/05/30 00:27:45;;;;;;;6.08;3.83;;;;;;;12.76;100.00;99003.63;1754896;80;21025;-73
2021/05/30 00:30:14;;;;;;;4.20;3.15;;;;;;;12.79;100.00;99004.89;1760434;80;20986;-74
2021/05/30 00:32:41;;;;;;;4.25;3.85;;;;;;;12.79;100.00;99007.08;1746381;80;21001;-74
2021/05/30 00:35:09;;;;;;;3.90;3.52;;;;;;;12.78;100.00;99007.42;1729709;82;20896;-74
2021/05/30 00:37:36;;;;;;;4.85;3.80;;;;;;;12.76;100.00;99005.01;1725876;82;21059;-77
2021/05/30 00:40:04;;;;;;;5.65;3.90;;;;;;;12.74;100.00;99003.74;1726771;81;21743;-74
2021/05/30 00:42:30;;;;;;;4.87;3.85;;;;;;;12.72;100.00;99004.09;1734283;81;20908;-73
2021/05/30 00:44:57;;;;;;;5.10;3.55;;;;;;;12.73;100.00;99003.52;1707585;82;20987;-73
2021/05/30 00:47:23;;;;;;;6.70;3.92;;;;;;;12.73;100.00;99005.69;1717905;81;20971;-73
2021/05/30 00:49:50;;;;;;;5.17;3.90;;;;;;;12.74;100.00;98999.04;1740847;81;21591;-73
2021/05/30 00:52:17;;;;;;;4.30;3.62;;;;;;;12.75;100.00;98998.47;1702970;82;21548;-73
2021/05/30 00:54:44;;;;;;;6.10;3.50;;;;;;;12.75;100.00;98991.58;1728667;81;21493;-73
2021/05/30 00:57:11;;;;;;;5.35;4.20;;;;;;;12.74;100.00;98984.47;1715618;81;20994;-73
2021/05/30 00:59:37;;;;;;;5.15;4.40;;;;;;;12.73;100.00;98981.48;1732868;81;21045;-73
2021/05/30 01:02:04;;;;;;;5.22;3.42;;;;;;;12.73;100.00;98985.61;1717382;81;21493;-73
2021/05/30 01:04:30;;;;;;;4.30;3.60;;;;;;;12.71;100.00;98982.42;1713663;81;21462;-74
2021/05/30 01:07:00;;;;;;;6.60;3.50;;;;;;;12.71;100.00;98985.18;1728574;82;21557;-77
2021/05/30 01:09:28;;;;;;;4.10;3.70;;;;;;;12.69;100.00;98990.23;1710618;82;20971;-77
2021/05/30 01:11:55;;;;;;;6.15;3.35;;;;;;;12.67;100.00;98987.81;1714776;81;21059;-77
2021/05/30 01:14:22;;;;;;;6.28;3.30;;;;;;;12.66;100.00;98988.16;1746720;81;20947;-77
2021/05/30 01:16:50;;;;;;;4.65;3.55;;;;;;;12.64;100.00;98988.50;1711812;83;21592;-78
2021/05/30 01:19:17;;;;;;;5.80;3.60;;;;;;;12.62;100.00;98981.16;1702832;82;21000;-77
2021/05/30 01:21:46;;;;;;;5.35;3.90;;;;;;;12.61;100.00;98985.63;1732358;80;20980;-77
2021/05/30 01:24:14;;;;;;;4.20;3.45;;;;;;;12.60;100.00;98989.53;1699160;82;21554;-78
2021/05/30 01:26:41;;;;;;;4.30;3.40;;;;;;;12.60;100.00;98994.46;1711619;81;20956;-77
2021/05/30 01:29:08;;;;;;;8.75;3.72;;;;;;;12.59;100.00;98986.55;1715752;81;20982;-77
2021/05/30 01:31:35;;;;;;;7.85;4.37;;;;;;;12.59;100.00;98983.79;1706737;82;21075;-77
2021/05/30 01:34:02;;;;;;;8.78;3.80;;;;;;;12.58;100.00;98987.12;1729904;81;21638;-77
2021/05/30 01:36:29;;;;;;;4.55;3.95;;;;;;;12.55;100.00;98989.98;1738024;81;20983;-77
2021/05/30 01:38:56;;;;;;;5.12;3.35;;;;;;;12.54;100.00;98988.95;1733686;81;21273;-77
2021/05/30 01:41:23;;;;;;;3.60;3.30;;;;;;;12.51;100.00;98989.63;1720978;81;21079;-77
2021/05/30 01:43:49;;;;;;;5.70;4.08;;;;;;;12.47;100.00;98988.13;1718168;82;21555;-76
2021/05/30 01:46:16;;;;;;;9.58;4.40;;;;;;;12.45;100.00;98990.42;1720782;81;20932;-76
2021/05/30 01:48:43;;;;;;;8.13;4.37;;;;;;;12.46;100.00;98996.16;1726783;81;20950;-76
2021/05/30 01:51:10;;;;;;;9.15;4.50;;;;;;;12.46;100.00;98998.91;1721621;82;21572;-76
2021/05/30 01:53:47;;;;;;;7.30;4.47;;;;;;;12.47;100.00;99009.35;1720946;82;21052;-76
2021/05/30 01:58:32;;;;;;;7.92;4.22;;;;;;;12.46;100.00;99011.88;1722934;82;21640;-76
2021/05/30 02:00:59;;;;;;;9.80;4.03;;;;;;;12.43;100.00;99009.23;1729239;81;20975;-75
2021/05/30 02:03:25;;;;;;;8.43;4.20;;;;;;;12.43;100.00;99016.11;1746051;81;21089;-75
2021/05/30 02:05:52;;;;;;;6.90;4.30;;;;;;;12.43;100.00;99024.37;1741304;80;21035;-76
2021/05/30 02:08:20;;;;;;;4.70;4.05;;;;;;;12.42;100.00;99029.64;1736442;81;20981;-76
2021/05/30 02:10:47;;;;;;;5.47;4.45;;;;;;;12.42;100.00;99036.52;1722879;81;20980;-76
2021/05/30 02:13:14;;;;;;;7.20;4.33;;;;;;;12.43;100.00;99027.70;1725950;81;21083;-75
2021/05/30 02:15:41;;;;;;;9.23;4.40;;;;;;;12.44;100.00;99035.61;1721260;82;20988;-75
2021/05/30 02:18:07;;;;;;;6.05;4.60;;;;;;;12.46;100.00;99040.78;1722274;83;21626;-75
2021/05/30 02:20:40;;;;;;;4.95;4.20;;;;;;;12.46;100.00;99048.47;1718580;82;20969;-75
2021/05/30 02:23:14;;;;;;;15.70;4.80;;;;;;;12.50;100.00;99048.59;1729355;81;20936;-75
2021/05/30 02:25:40;;;;;;;15.63;4.30;;;;;;;12.51;100.00;99041.94;1726619;81;21020;-77
2021/05/30 02:28:07;;;;;;;5.60;4.15;;;;;;;12.52;100.00;99044.35;1729379;81;21570;-76
2021/05/30 02:30:33;;;;;;;5.08;4.37;;;;;;;12.55;100.00;99045.05;1716426;82;21063;-77
2021/05/30 02:33:03;;;;;;;5.33;4.22;;;;;;;12.55;100.00;99039.54;1729146;80;20983;-74
2021/05/30 02:35:28;;;;;;;10.32;4.78;;;;;;;12.53;100.00;99045.16;1738460;80;21533;-77
2021/05/30 02:37:55;;;;;;;7.42;4.60;;;;;;;12.53;100.00;99043.20;1741786;80;20992;-75
2021/05/30 02:40:22;;;;;;;6.42;4.40;;;;;;;12.53;100.00;99047.34;1743069;81;21050;-75
2021/05/30 02:42:49;;;;;;;6.60;4.55;;;;;;;12.53;100.00;99051.47;1742967;82;21080;-74
2021/05/30 02:45:15;;;;;;;7.55;4.62;;;;;;;12.53;100.00;99045.16;1768568;80;21072;-74
2021/05/30 02:47:42;;;;;;;5.42;3.80;;;;;;;12.52;100.00;99046.30;1737218;82;21549;-74
2021/05/30 02:50:09;;;;;;;6.35;4.22;;;;;;;12.48;100.00;99049.50;1720009;82;21106;-78
2021/05/30 02:52:36;;;;;;;4.95;4.25;;;;;;;12.46;100.00;99049.84;1748406;80;20926;-75
2021/05/30 02:55:03;;;;;;;6.15;5.03;;;;;;;12.45;100.00;99048.23;1755605;80;21030;-75
2021/05/30 02:57:31;;;;;;;7.03;4.53;;;;;;;12.47;100.00;99054.20;1729058;81;20921;-75
2021/05/30 02:59:57;;;;;;;7.72;5.80;;;;;;;12.46;100.00;99048.47;1743692;81;20957;-75
2021/05/30 03:02:24;;;;;;;8.53;5.65;;;;;;;12.46;100.00;99055.34;1720379;82;20942;-75
2021/05/30 03:04:54;;;;;;;9.08;5.37;;;;;;;12.47;100.00;99054.20;1724774;81;20911;-75
2021/05/30 03:07:21;;;;;;;12.28;5.50;;;;;;;12.49;100.00;99054.66;1726987;81;21614;-77
2021/05/30 03:09:47;;;;;;;7.35;4.75;;;;;;;12.50;100.00;99052.14;1740211;81;22429;-73
2021/05/30 03:12:16;;;;;;;9.78;5.30;;;;;;;12.54;100.00;99058.58;1734915;81;20874;-74
2021/05/30 03:14:42;;;;;;;6.47;5.10;;;;;;;12.56;100.00;99056.30;1747146;80;20914;-77
2021/05/30 03:17:09;;;;;;;8.43;5.42;;;;;;;12.58;100.00;99060.66;1728509;79;21009;-76
2021/05/30 03:19:36;;;;;;;6.45;5.10;;;;;;;12.58;100.00;99059.28;1741925;81;21031;-76
2021/05/30 03:22:03;;;;;;;7.05;5.03;;;;;;;12.59;100.00;99047.12;1748050;80;21012;-75
2021/05/30 03:24:30;;;;;;;8.18;5.42;;;;;;;12.58;100.00;99037.25;1727076;81;20970;-75
2021/05/30 03:26:56;;;;;;;9.13;5.35;;;;;;;12.59;100.00;99036.91;1757688;80;20958;-74
2021/05/30 03:29:23;;;;;;;6.53;5.10;;;;;;;12.56;100.00;99040.34;1696045;83;20966;-74
2021/05/30 03:31:49;;;;;;;5.70;5.10;;;;;;;12.52;100.00;99038.84;1706641;83;21146;-76
2021/05/30 03:34:15;;;;;;;5.45;4.90;;;;;;;12.49;100.00;99038.15;1729448;80;21065;-75
2021/05/30 03:36:43;;;;;;;7.67;4.97;;;;;;;12.47;100.00;99044.56;1724438;82;20895;-75
2021/05/30 03:39:10;;;;;;;6.75;5.08;;;;;;;12.45;100.00;99046.86;1725614;83;20998;-75
2021/05/30 03:41:42;;;;;;;9.55;5.55;;;;;;;12.44;100.00;99045.25;1721795;82;21641;-77
2021/05/30 03:44:09;;;;;;;7.30;4.78;;;;;;;12.47;100.00;99047.89;1717721;82;21143;-76
2021/05/30 03:46:36;;;;;;;6.80;5.15;;;;;;;12.52;100.00;99045.73;1709275;82;21010;-73
2021/05/30 03:49:04;;;;;;;11.33;5.20;;;;;;;12.61;100.00;99037.95;1723073;82;20987;-75
2021/05/30 03:51:31;;;;;;;8.10;5.28;;;;;;;12.71;100.00;99037.51;1708941;82;21531;-75
2021/05/30 03:53:57;;;;;;;9.38;5.10;;;;;;;12.79;100.00;99043.45;1664244;85;21089;-76
2021/05/30 03:56:24;;;;;;;9.03;5.08;;;;;;;12.89;100.00;99045.19;1710101;82;21088;-75
2021/05/30 03:58:50;;;;;;;6.33;5.47;;;;;;;13.00;100.00;99043.36;1718987;82;20927;-76
2021/05/30 04:01:17;;;;;;;5.42;4.95;;;;;;;13.14;100.00;99044.63;1722447;82;20970;-76
2021/05/30 04:03:43;;;;;;;8.20;5.08;;;;;;;13.30;100.00;99048.08;1720846;82;21551;-74
2021/05/30 04:06:10;;;;;;;8.05;4.95;;;;;;;13.42;100.00;99042.55;1718546;82;21109;-73
2021/05/30 04:08:37;;;;;;;5.47;4.83;;;;;;;13.49;100.00;99038.64;1721987;82;21072;-74
2021/05/30 04:11:04;;;;;;;7.03;5.00;;;;;;;13.57;100.00;99047.36;1710793;82;20950;-74
2021/05/30 04:13:30;;;;;;;7.65;5.05;;;;;;;13.61;100.00;99046.89;1722803;82;21026;-75
2021/05/30 04:15:57;;;;;;;5.53;4.25;;;;;;;13.63;100.00;99049.30;1727942;82;20994;-74
2021/05/30 04:18:23;;;;;;;5.00;3.98;;;;;;;13.67;100.00;99055.16;1706378;82;20941;-74
2021/05/30 04:20:50;;;;;;;7.08;4.47;;;;;;;13.71;100.00;99051.13;1675903;84;21635;-74
2021/05/30 04:23:17;;;;;;;5.35;4.30;;;;;;;13.72;100.00;99051.36;1677565;84;21030;-74
2021/05/30 04:25:43;;;;;;;6.90;4.92;;;;;;;13.71;100.00;99056.64;1717501;82;21102;-74
2021/05/30 04:28:10;;;;;;;5.22;4.25;;;;;;;13.72;100.00;99048.02;1715499;82;21066;-79
2021/05/30 04:30:37;;;;;;;7.37;3.85;;;;;;;13.74;100.00;99048.48;1724205;82;20958;-75
2021/05/30 04:33:04;;;;;;;4.80;4.10;;;;;;;13.75;100.00;99045.95;1719378;82;21103;-76
2021/05/30 04:35:30;;;;;;;6.40;4.35;;;;;;;13.74;100.00;99055.37;1715674;82;20892;-74
2021/05/30 04:37:57;;;;;;;4.47;3.80;;;;;;;13.81;100.00;99058.34;1722733;82;21011;-75
2021/05/30 04:40:24;;;;;;;4.50;3.92;;;;;;;13.89;100.00;99060.70;1725646;81;20962;-74
2021/05/30 04:42:52;;;;;;;4.25;3.85;;;;;;;13.95;100.00;99062.07;1716945;82;21025;-75
2021/05/30 04:45:20;;;;;;;7.72;3.80;;;;;;;13.93;100.00;99058.86;1724691;81;20996;-75
2021/05/30 04:47:49;;;;;;;7.78;3.87;;;;;;;13.93;100.00;99063.58;1729649;81;20987;-75
2021/05/30 04:50:15;;;;;;;5.80;3.98;;;;;;;13.99;100.00;99065.73;1735095;80;20994;-77
2021/05/30 04:52:42;;;;;;;6.67;4.28;;;;;;;14.09;100.00;99060.30;1727551;82;21093;-77
2021/05/30 04:55:13;;;;;;;8.80;4.78;;;;;;;14.14;100.00;99064.20;1741491;81;20963;-75
2021/05/30 04:57:40;;;;;;;9.70;3.87;;;;;;;14.18;100.00;99070.63;1737876;81;21529;-76
2021/05/30 05:00:08;;;;;;;5.58;4.58;;;;;;;14.25;100.00;99070.02;1722613;82;21098;-78
2021/05/30 05:02:35;;;;;;;6.45;4.65;;;;;;;14.32;100.00;99072.41;1724439;82;21496;-76
2021/05/30 05:05:02;;;;;;;7.55;4.80;;;;;;;14.39;100.00;99062.94;1735265;81;20935;-75
2021/05/30 05:07:28;;;;;;;7.62;4.40;;;;;;;14.42;100.00;99062.27;1739201;81;21011;-76
2021/05/30 05:09:55;;;;;;;5.10;4.08;;;;;;;14.44;100.00;99056.39;1733630;81;21101;-75
2021/05/30 05:12:22;;;;;;;6.15;3.95;;;;;;;14.46;100.00;99053.47;1719744;81;21151;-74
2021/05/30 05:14:49;;;;;;;6.58;3.52;;;;;;;14.51;100.00;99053.22;1740277;82;21539;-74
2021/05/30 05:17:15;;;;;;;4.20;3.80;;;;;;;14.57;98.95;99048.81;1688351;85;21301;-75
2021/05/30 05:19:42;;;;;;;9.08;3.50;;;;;;;14.62;98.37;99054.08;1717043;83;20890;-74
2021/05/30 05:22:08;;;;;;;3.70;3.35;;;;;;;14.70;98.65;99058.64;1750129;82;21057;-74
2021/05/30 05:24:35;;;;;;;7.35;3.70;;;;;;;14.82;98.75;99049.70;1750575;82;21592;-76
2021/05/30 05:27:02;;;;;;;7.17;3.60;;;;;;;14.93;98.37;99051.93;1750798;81;20937;-72
2021/05/30 05:29:28;;;;;;;4.12;3.35;;;;;;;15.00;97.47;99041.86;1750759;82;20962;-75
2021/05/30 05:31:55;;;;;;;4.90;3.33;;;;;;;15.08;96.26;99039.46;1688242;85;21544;-75
2021/05/30 05:34:21;;;;;;;3.80;2.98;;;;;;;15.11;95.00;99042.89;1747441;81;21460;-75
2021/05/30 05:36:48;;;;;;;8.35;3.35;;;;;;;15.16;94.33;99040.44;1721533;82;21061;-75
2021/05/30 05:39:15;;;;;;;4.78;2.83;;;;;;;15.20;93.90;99040.75;1731159;80;20985;-75
2021/05/30 05:41:42;;;;;;;6.53;2.90;;;;;;;15.29;93.03;99046.09;1736379;81;20926;-74
2021/05/30 05:44:08;;;;;;;11.75;2.92;;;;;;;15.33;91.57;99048.94;1737233;81;20967;-75
2021/05/30 05:46:35;;;;;;;4.00;2.35;;;;;;;15.32;88.98;99046.75;1734903;80;21410;-75
2021/05/30 05:49:01;;;;;;;3.62;2.10;;;;;;;15.27;89.25;99044.84;1725972;82;21581;-74
2021/05/30 05:51:28;;;;;;;2.60;2.40;;;;;;;15.29;88.97;99046.09;1748478;80;20950;-74
2021/05/30 05:53:54;;;;;;;2.77;2.58;;;;;;;15.34;88.88;99049.97;1715415;81;20989;-74
2021/05/30 05:56:20;;;;;;;5.17;2.75;;;;;;;15.38;88.97;99050.84;1711546;82;21562;-73
2021/05/30 05:58:47;;;;;;;9.10;2.75;;;;;;;15.44;87.52;99052.76;1720036;82;21042;-77
2021/05/30 06:01:13;;;;;;;4.25;2.40;;;;;;;15.50;86.94;99055.47;1716546;82;21045;-74
2021/05/30 06:03:39;;;;;;;2.95;2.35;;;;;;;15.59;86.72;99056.11;1737415;82;21069;-75
2021/05/30 06:06:06;;;;;;;2.22;1.95;;;;;;;15.70;86.47;99051.59;1745377;80;21045;-74
2021/05/30 06:08:32;;;;;;;4.83;2.37;;;;;;;15.79;85.26;99059.69;1746852;80;21002;-74
2021/05/30 06:10:58;;;;;;;6.72;2.33;;;;;;;15.87;85.31;99054.52;1755234;80;21619;-73
2021/05/30 06:13:25;;;;;;;2.75;2.50;;;;;;;15.98;85.13;99053.38;1751627;80;20926;-73
2021/05/30 06:15:53;;;;;;;6.03;2.10;;;;;;;16.06;85.26;99050.39;1767920;78;20941;-74
2021/05/30 06:18:22;;;;;;;5.85;2.10;;;;;;;16.12;83.40;99046.16;1760068;80;21108;-74
2021/05/30 06:20:48;;;;;;;6.95;2.08;;;;;;;16.10;82.68;99038.80;1775581;80;20985;-75
2021/05/30 06:23:15;;;;;;;4.85;2.10;;;;;;;16.15;83.80;99043.25;1759780;80;21620;-73
2021/05/30 06:25:43;;;;;;;2.87;2.00;;;;;;;16.29;84.72;99036.58;1758028;80;20895;-74
2021/05/30 06:28:09;;;;;;;2.33;1.80;;;;;;;16.49;83.25;99031.81;1751738;78;21046;-74
2021/05/30 06:30:38;;;;;;;2.45;1.92;;;;;;;16.58;82.85;99040.70;1739770;81;21624;-73
2021/05/30 06:33:06;;;;;;;2.83;1.80;;;;;;;16.71;82.24;99041.36;1775512;80;21621;-73
2021/05/30 06:35:35;;;;;;;1.75;1.65;;;;;;;16.83;82.22;99041.95;1738576;81;21471;-72
2021/05/30 06:38:02;;;;;;;4.40;1.70;;;;;;;16.95;78.36;99042.35;1741282;81;21020;-71
2021/05/30 06:40:29;;;;;;;1.72;1.62;;;;;;;16.99;78.90;99048.76;1759490;80;21009;-71
2021/05/30 06:42:57;;;;;;;5.37;1.90;;;;;;;17.02;78.18;99045.83;1744985;80;21715;-72
2021/05/30 06:45:23;;;;;;;2.22;1.80;;;;;;;17.05;77.90;99045.89;1740997;80;20998;-71
2021/05/30 06:47:53;;;;;;;8.43;1.98;;;;;;;17.10;76.88;99053.91;1730196;81;21143;-74
2021/05/30 06:50:21;;;;;;;5.37;2.05;;;;;;;17.13;76.57;99054.55;1727042;81;20999;-72
2021/05/30 06:52:47;;;;;;;4.12;1.90;;;;;;;17.23;76.95;99064.80;1725978;82;21144;-72
2021/05/30 06:55:13;;;;;;;3.20;2.00;;;;;;;17.36;77.10;99070.34;1730132;81;21540;-73
2021/05/30 06:57:40;;;;;;;3.72;2.00;;;;;;;17.48;75.92;99070.13;1724863;82;20955;-73
2021/05/30 07:00:08;;;;;;;1.85;1.75;;;;;;;17.61;75.65;99077.08;1722205;82;21053;-72
2021/05/30 07:02:35;;;;;;;4.17;1.80;;;;;;;17.69;73.74;99080.20;1728199;82;20910;-72
2021/05/30 07:05:02;;;;;;;5.97;2.40;;;;;;;17.71;72.89;99081.22;1746484;80;21009;-73
2021/05/30 07:07:29;;;;;;;2.50;2.10;;;;;;;17.67;72.76;99088.10;1740510;80;20949;-75
2021/05/30 07:09:57;;;;;;;5.97;2.10;;;;;;;17.70;72.81;99089.33;1742285;80;21085;-73
2021/05/30 07:12:24;;;;;;;4.83;2.27;;;;;;;17.71;72.78;99082.61;1730373;81;21481;-74
2021/05/30 07:14:52;;;;;;;4.33;2.60;;;;;;;17.79;73.37;99092.64;1732892;81;21627;-75
2021/05/30 07:17:20;;;;;;;2.10;1.90;;;;;;;17.87;72.07;99086.02;1721285;82;21050;-76
2021/05/30 07:19:50;;;;;;;2.92;2.10;;;;;;;17.90;72.65;99085.84;1728674;82;21329;-77
2021/05/30 07:22:16;;;;;;;3.92;2.22;;;;;;;17.82;71.62;99084.95;1719688;82;21081;-73
2021/05/30 07:24:43;;;;;;;3.45;2.20;;;;;;;17.84;72.24;99083.19;1713287;82;21124;-74
2021/05/30 07:27:10;;;;;;;2.90;2.30;;;;;;;17.99;73.33;99084.37;1732052;81;20947;-73
2021/05/30 07:29:36;;;;;;;2.90;1.95;;;;;;;18.09;72.03;99086.48;1661348;83;21110;-76
2021/05/30 07:32:04;;;;;;;6.22;1.90;;;;;;;18.18;72.25;99085.41;1746403;81;21053;-72
2021/05/30 07:34:31;;;;;;;3.45;2.00;;;;;;;18.29;72.08;99089.92;1679215;83;21014;-74
2021/05/30 07:36:57;;;;;;;3.30;2.10;;;;;;;18.47;72.32;99083.98;1678704;83;21096;-74
2021/05/30 07:39:24;;;;;;;4.25;2.30;;;;;;;18.67;72.13;99088.78;1680815;83;21658;-76
2021/05/30 07:41:51;;;;;;;3.50;2.33;;;;;;;18.85;72.21;99090.95;1673071;84;20999;-75
2021/05/30 07:44:17;;;;;;;2.60;1.80;;;;;;;18.96;70.25;99083.52;1677885;83;21182;-73
2021/05/30 07:46:45;;;;;;;4.33;1.82;;;;;;;18.95;67.40;99092.45;1696855;83;21010;-73
2021/05/30 07:49:12;;;;;;;4.62;1.95;;;;;;;18.93;68.39;99090.64;1664946;84;21275;-74
2021/05/30 07:51:38;;;;;;;2.77;1.75;;;;;;;18.97;68.53;99087.30;1680263;83;20927;-73
2021/05/30 07:54:04;;;;;;;3.22;2.35;;;;;;;19.04;67.63;99090.16;1664849;85;20994;-72
2021/05/30 07:56:31;;;;;;;6.22;2.25;;;;;;;18.91;67.54;99093.59;1677171;85;21042;-73
2021/05/30 07:58:58;;;;;;;4.12;3.02;;;;;;;18.71;68.05;99099.35;1672057;85;21196;-73
2021/05/30 08:01:24;;;;;;;4.35;1.65;;;;;;;18.47;67.62;99095.11;1664580;85;20999;-73
2021/05/30 08:03:51;;;;;;;3.00;2.22;;;;;;;18.35;69.25;99100.11;1672516;83;21131;-74
2021/05/30 08:06:17;;;;;;;3.55;2.47;;;;;;;18.31;68.10;99095.90;1677401;85;20981;-73
2021/05/30 08:08:45;;;;;;;2.47;2.27;;;;;;;18.28;68.97;99100.82;1672628;84;20943;-74
2021/05/30 08:11:12;;;;;;;4.33;1.98;;;;;;;18.21;69.06;99102.12;1673562;84;21031;-73
2021/05/30 08:13:40;;;;;;;2.50;2.08;;;;;;;18.11;67.87;99105.55;1667061;85;21119;-72
2021/05/30 08:16:07;;;;;;;1.67;1.57;;;;;;;17.92;68.36;99096.77;1716604;82;21588;-72
2021/05/30 08:18:33;;;;;;;2.35;1.92;;;;;;;17.84;69.20;99104.01;1710694;82;21009;-72
2021/05/30 08:21:00;;;;;;;4.67;2.33;;;;;;;17.92;70.77;99102.91;1716502;82;21057;-74
2021/05/30 08:23:26;;;;;;;2.20;2.00;;;;;;;18.13;70.67;99105.98;1713133;82;21006;-74
2021/05/30 08:25:53;;;;;;;2.58;2.10;;;;;;;18.42;71.98;99100.20;1720898;82;21100;-73
2021/05/30 08:28:21;;;;;;;6.25;2.10;;;;;;;18.76;69.83;99101.79;1714402;82;21097;-72
2021/05/30 08:30:47;;;;;;;5.28;2.42;;;;;;;18.94;68.32;99108.13;1722728;82;20998;-75
2021/05/30 08:33:14;;;;;;;4.03;1.95;;;;;;;19.20;69.19;99102.39;1711064;82;21634;-73
2021/05/30 08:35:41;;;;;;;2.98;2.05;;;;;;;19.68;66.29;99097.61;1722712;81;21089;-74
2021/05/30 08:38:07;;;;;;;2.87;1.90;;;;;;;20.10;66.42;99102.66;1726462;80;21871;-72
2021/05/30 08:40:34;;;;;;;2.90;2.02;;;;;;;20.42;64.68;99095.84;1739126;81;21334;-74
2021/05/30 08:43:00;;;;;;;3.20;2.10;;;;;;;20.52;62.06;99088.70;1745704;80;20930;-72
2021/05/30 08:45:27;;;;;;;3.95;1.72;;;;;;;20.43;60.49;99083.50;1745533;78;21624;-74
2021/05/30 08:47:54;;;;;;;4.05;2.10;;;;;;;20.51;62.58;99084.92;1750232;80;21109;-74
2021/05/30 08:50:20;;;;;;;2.05;1.80;;;;;;;20.67;61.19;99086.77;1745354;81;21041;-75
2021/05/30 08:52:46;;;;;;;3.85;1.90;;;;;;;20.78;59.49;99079.22;1733683;80;21038;-73
2021/05/30 08:55:13;;;;;;;3.33;1.52;;;;;;;20.91;59.74;99081.02;1713051;83;21017;-74
2021/05/30 08:57:39;;;;;;;2.40;1.98;;;;;;;21.08;58.70;99070.47;1725465;81;21013;-77
2021/05/30 09:00:09;;;;;;;4.78;1.80;;;;;;;21.13;58.95;99072.88;1729010;81;21144;-72
2021/05/30 09:02:36;;;;;;;1.90;1.50;;;;;;;21.08;59.79;99074.66;1727206;81;21078;-73
2021/05/30 09:05:10;;;;;;;3.85;2.02;;;;;;;21.09;59.43;99080.44;1729809;81;22944;-74
2021/05/30 09:07:49;;;;;;;2.58;1.70;;;;;;;21.02;59.20;99077.05;1766940;78;21083;-74
2021/05/30 09:10:22;;;;;;;2.58;1.77;;;;;;;20.78;58.04;99076.44;1762814;80;21041;-73
2021/05/30 09:13:06;;;;;;;1.85;1.75;;;;;;;20.47;59.00;99072.95;1758447;80;21037;-73
2021/05/30 09:18:23;;;;;;;2.35;1.75;;;;;;;19.73;60.28;99071.39;1650909;82;21070;-73
2021/05/30 09:21:02;;;;;;;3.55;2.40;;;;;;;19.41;61.10;99089.25;1726028;82;21897;-75
2021/05/30 09:23:44;;;;;;;3.08;1.82;;;;;;;19.19;61.70;99089.66;1735628;80;21682;-75
2021/05/30 09:26:22;;;;;;;3.17;2.50;;;;;;;19.01;61.98;99082.58;1758480;80;20964;-77
2021/05/30 09:29:10;;;;;;;4.15;2.00;;;;;;;18.76;63.07;99099.01;1723146;80;21490;-74
2021/05/30 09:31:58;;;;;;;3.75;1.90;;;;;;;18.58;63.53;99096.59;1733671;79;20904;-76
2021/05/30 09:34:32;;;;;;;2.37;2.12;;;;;;;18.42;63.46;99092.66;1729373;80;21087;-76
2021/05/30 09:37:00;;;;;;;4.83;1.90;;;;;;;18.28;64.30;99084.16;1666145;83;21102;-74
2021/05/30 09:39:42;;;;;;;2.72;1.80;;;;;;;18.08;64.99;99089.64;1669788;83;21620;-75
2021/05/30 09:42:36;;;;;;;2.92;1.90;;;;;;;17.95;65.57;99088.27;1673805;83;21272;-75
2021/05/30 09:45:11;;;;;;;2.77;1.93;;;;;;;17.77;65.94;99100.54;1715774;82;21185;-74
2021/05/30 09:47:44;;;;;;;2.87;1.85;;;;;;;17.59;65.59;99108.56;1731553;81;20997;-74
2021/05/30 09:50:12;;;;;;;3.62;2.00;;;;;;;17.43;65.94;99113.45;1752044;80;21661;-74
2021/05/30 09:52:46;;;;;;;2.77;2.10;;;;;;;17.27;66.01;99112.23;1721450;81;20970;-72
2021/05/30 09:55:19;;;;;;;2.40;2.00;;;;;;;17.12;66.63;99120.09;1720261;82;21839;-73
2021/05/30 09:58:23;;;;;;;5.12;2.45;;;;;;;17.02;67.70;99121.50;1764126;80;21677;-73
2021/05/30 10:00:58;;;;;;;5.72;2.70;;;;;;;16.97;68.45;99126.55;1745543;81;20921;-71
2021/05/30 10:03:25;;;;;;;3.33;2.20;;;;;;;16.92;69.58;99129.04;1768215;80;22494;-73
2021/05/30 10:05:52;;;;;;;3.83;2.47;;;;;;;16.87;69.18;99127.95;1759352;80;21050;-72
2021/05/30 10:08:19;;;;;;;4.67;2.22;;;;;;;16.74;70.11;99130.12;1734594;81;21555;-71
2021/05/30 10:10:46;;;;;;;4.85;2.50;;;;;;;16.64;71.45;99124.34;1759436;80;21019;-76
2021/05/30 10:13:14;;;;;;;3.08;2.50;;;;;;;16.58;72.39;99125.22;1715974;82;21065;-74
2021/05/30 10:15:40;;;;;;;4.42;2.33;;;;;;;16.51;73.21;99125.88;1760381;80;20966;-74
2021/05/30 10:18:15;;;;;;;3.98;2.05;;;;;;;16.41;73.69;99122.88;1747893;81;21592;-74
2021/05/30 10:20:43;;;;;;;4.33;2.25;;;;;;;16.32;73.69;99131.41;1720138;81;22375;-74
2021/05/30 10:23:10;;;;;;;5.17;2.75;;;;;;;16.23;74.24;99140.51;1735138;81;21065;-74
2021/05/30 10:25:37;;;;;;;2.75;2.30;;;;;;;16.16;74.56;99144.54;1726988;81;21077;-75
2021/05/30 10:28:16;;;;;;;4.85;2.80;;;;;;;16.12;74.82;99142.27;1699950;83;21098;-75
2021/05/30 10:30:50;;;;;;;8.23;3.00;;;;;;;16.07;76.06;99137.82;1704064;83;21030;-74
2021/05/30 10:33:24;;;;;;;3.65;2.85;;;;;;;16.08;76.55;99149.12;1747796;80;21679;-73
2021/05/30 10:35:53;;;;;;;6.53;3.20;;;;;;;16.05;76.90;99147.07;1759405;80;21008;-73
2021/05/30 10:38:43;;;;;;;10.55;3.20;;;;;;;15.98;77.67;99146.91;1750316;80;21049;-73
2021/05/30 10:41:18;;;;;;;5.03;3.22;;;;;;;15.96;78.89;99151.20;1744484;81;21067;-73
2021/05/30 10:43:45;;;;;;;4.55;3.27;;;;;;;15.90;79.56;99151.26;1729902;81;20969;-77
2021/05/30 10:46:12;;;;;;;6.05;3.65;;;;;;;15.83;79.93;99154.08;1746119;81;21003;-71
2021/05/30 10:48:43;;;;;;;4.97;4.03;;;;;;;15.78;81.07;99158.52;1738687;81;21122;-76
2021/05/30 10:51:17;;;;;;;4.87;3.35;;;;;;;15.75;81.99;99164.77;1734840;80;21094;-75
2021/05/30 10:53:52;;;;;;;6.53;3.70;;;;;;;15.69;82.50;99170.34;1707625;81;21073;-75
2021/05/30 10:56:33;;;;;;;5.95;4.22;;;;;;;15.58;82.61;99172.66;1745622;79;21625;-74
2021/05/30 10:59:28;;;;;;;7.97;4.65;;;;;;;15.41;83.45;99180.13;1742067;79;21131;-75
2021/05/30 11:01:55;;;;;;;7.00;4.17;;;;;;;15.18;84.71;99188.22;1660433;84;21147;-75
2021/05/30 11:04:31;;;;;;;5.95;3.95;;;;;;;14.92;87.17;99193.46;1658989;83;21109;-76
2021/05/30 11:07:10;;;;;;;5.10;3.25;;;;;;;14.71;88.08;99199.19;1666566;85;21036;-75
2021/05/30 11:10:02;;;;;;;4.12;3.25;;;;;;;14.57;89.59;99200.73;1692322;83;21006;-76
2021/05/30 11:12:49;;;;;;;7.10;3.50;;;;;;;14.41;90.99;99199.28;1651058;84;21603;-76
2021/05/30 11:15:20;;;;;;;16.90;3.67;;;;;;;14.26;91.80;99208.29;1675030;85;21070;-76
2021/05/30 11:17:53;;;;;;;8.05;3.35;;;;;;;14.10;92.69;99216.48;1670345;84;21545;-75
2021/05/30 11:20:31;;;;;;;5.30;2.70;;;;;;;13.95;93.76;99214.42;1658352;84;21704;-76
2021/05/30 11:23:00;;;;;;;4.97;2.98;;;;;;;13.82;94.50;99221.34;1672093;85;21018;-75
2021/05/30 11:25:40;;;;;;;5.28;3.42;;;;;;;13.71;95.05;99222.15;1666060;85;21150;-75
2021/05/30 11:28:10;;;;;;;11.97;4.12;;;;;;;13.66;96.45;99212.15;1669893;84;20906;-77
2021/05/30 11:30:47;;;;;;;7.50;3.85;;;;;;;13.66;96.79;99207.20;1662456;84;21692;-78
2021/05/30 11:33:28;;;;;;;6.05;3.83;;;;;;;13.64;96.80;99197.89;1618066;86;21156;-74
2021/05/30 11:36:00;;;;;;;9.43;3.90;;;;;;;13.66;97.38;99187.90;1650621;86;21024;-76
2021/05/30 11:38:45;;;;;;;7.87;4.37;;;;;;;13.72;98.40;99184.56;1653506;84;21710;-75
2021/05/30 11:41:28;;;;;;;12.23;5.03;;;;;;;13.86;99.07;99196.63;1672386;83;21028;-76